Aviation Digital Data Service (ADDS)

Output produced by METARs form (1906 UTC 24 April 2017)
found at http://aviationweather.gov/adds/metars/
 
KJHW 241725Z 2418/2518 05006KT P6SM SKC 
     FM242000 10009KT P6SM FEW200 
     FM250500 12011G18KT P6SM BKN060 
     FM250900 13014G22KT P6SM VCSH OVC035 
     FM251100 14013G21KT P6SM VCSH OVC025 
     FM251700 13012G20KT P6SM BKN025 AMD LTD TO CLD VIS AND WIND